Time;durP1;ratioP1;P1;durP2;ratioP2;P2;SDS_P1;SDS_P2;PMS_P1;PMS_P2;Temp;Humidity;BMP_temperature;BMP_pressure;BME280_temperature;BME280_humidity;BME280_pressure;Samples;Min_cycle;Max_cycle;Signal;HPM_P1;HPM_P2
2022/08/02 00:00:19;;;;;;;1.30;1.20;;;;;;;21.36;98.14;100420.72;5006186;28;20211;-76
2022/08/02 00:02:46;;;;;;;1.27;1.10;;;;;;;21.31;98.01;100420.97;5001583;28;20216;-77
2022/08/02 00:05:12;;;;;;;1.33;1.00;;;;;;;21.28;97.78;100423.75;5004241;28;20176;-76
2022/08/02 00:07:38;;;;;;;0.80;0.80;;;;;;;21.27;98.34;100430.78;4998820;28;20195;-75
2022/08/02 00:10:04;;;;;;;1.83;1.10;;;;;;;21.24;98.37;100430.97;5006728;28;20205;-76
2022/08/02 00:12:30;;;;;;;1.63;1.03;;;;;;;21.21;98.81;100428.50;4996316;28;20199;-76
2022/08/02 00:14:56;;;;;;;1.93;1.10;;;;;;;21.16;99.05;100436.63;5002168;28;20244;-76
2022/08/02 00:17:22;;;;;;;1.27;1.17;;;;;;;21.12;99.82;100440.34;4998960;28;20220;-77
2022/08/02 00:19:47;;;;;;;1.50;1.40;;;;;;;21.06;99.99;100427.47;5004841;28;20216;-77
2022/08/02 00:22:13;;;;;;;1.30;1.20;;;;;;;21.01;100.00;100432.13;4995262;28;20189;-76
2022/08/02 00:24:38;;;;;;;1.40;1.30;;;;;;;20.97;100.00;100434.03;5006780;28;20625;-78
2022/08/02 00:27:06;;;;;;;1.10;1.00;;;;;;;20.94;100.00;100430.72;4997770;28;20226;-77
2022/08/02 00:29:32;;;;;;;1.30;1.20;;;;;;;20.90;100.00;100431.81;5000823;28;20193;-76
2022/08/02 00:31:57;;;;;;;2.10;1.20;;;;;;;20.84;100.00;100433.84;4998211;28;20196;-76
2022/08/02 00:34:23;;;;;;;1.17;1.10;;;;;;;;;;4996772;28;20191;-78
2022/08/02 00:36:48;;;;;;;0.97;0.97;;;;;;;20.77;100.00;100431.59;4993486;28;20299;-80
2022/08/02 00:39:14;;;;;;;1.33;1.20;;;;;;;20.75;100.00;100429.00;5011562;28;20187;-77
2022/08/02 00:41:48;;;;;;;1.17;1.07;;;;;;;20.77;100.00;100436.84;4994491;28;20217;-76
2022/08/02 00:44:18;;;;;;;1.20;1.10;;;;;;;20.75;100.00;100436.91;4999806;28;20681;-78
2022/08/02 00:46:47;;;;;;;1.17;1.03;;;;;;;20.73;100.00;100441.34;5008112;28;20183;-76
2022/08/02 00:49:13;;;;;;;1.30;1.20;;;;;;;20.70;100.00;100449.41;5006102;28;22030;-76
2022/08/02 00:51:39;;;;;;;1.10;1.10;;;;;;;20.66;100.00;100456.56;4999723;28;20770;-76
2022/08/02 00:54:05;;;;;;;1.20;1.10;;;;;;;20.61;100.00;100445.44;5001944;28;20196;-78
2022/08/02 00:56:31;;;;;;;1.07;0.97;;;;;;;20.56;100.00;100445.69;4991548;28;20588;-76
2022/08/02 00:58:56;;;;;;;1.30;1.20;;;;;;;20.53;100.00;100448.44;4995236;28;20656;-75
2022/08/02 01:01:37;;;;;;;1.40;1.30;;;;;;;20.51;100.00;100457.31;5001477;28;20216;-75
2022/08/02 01:04:04;;;;;;;1.17;1.07;;;;;;;20.46;100.00;100456.69;5002293;28;20192;-75
2022/08/02 01:06:32;;;;;;;1.10;1.00;;;;;;;20.41;100.00;100465.66;5003809;28;20191;-78
2022/08/02 01:08:58;;;;;;;1.50;1.40;;;;;;;20.40;100.00;100469.19;5004137;28;20257;-75
2022/08/02 01:11:23;;;;;;;1.30;1.20;;;;;;;20.42;100.00;100466.47;5003750;28;20219;-78
2022/08/02 01:13:49;;;;;;;1.07;1.03;;;;;;;20.49;100.00;100485.47;5001345;28;20851;-75
2022/08/02 01:16:19;;;;;;;1.47;1.20;;;;;;;20.54;100.00;100468.56;4998228;28;20200;-75
2022/08/02 01:18:53;;;;;;;1.30;1.20;;;;;;;20.60;100.00;100471.78;4991507;28;20184;-76
2022/08/02 01:21:46;;;;;;;1.83;1.47;;;;;;;20.67;100.00;100470.59;4990113;28;20415;-77
2022/08/02 01:24:33;;;;;;;1.30;1.30;;;;;;;20.73;100.00;100466.81;5002824;28;20243;-77
2022/08/02 01:27:35;;;;;;;1.30;1.20;;;;;;;20.78;100.00;100468.31;4999442;28;20242;-76
2022/08/02 01:30:01;;;;;;;1.10;1.10;;;;;;;20.83;100.00;100471.56;4989173;28;20215;-75
2022/08/02 01:32:32;;;;;;;1.40;1.30;;;;;;;20.88;100.00;100470.47;5002575;28;20205;-79
2022/08/02 01:35:17;;;;;;;1.40;1.30;;;;;;;20.92;100.00;100469.41;4998178;28;20193;-78
2022/08/02 01:37:57;;;;;;;1.30;1.10;;;;;;;20.95;100.00;100470.09;5003990;28;20227;-78
2022/08/02 01:40:29;;;;;;;1.00;1.00;;;;;;;20.97;100.00;100464.78;4998432;28;21455;-77
2022/08/02 01:42:58;;;;;;;1.40;1.20;;;;;;;20.96;100.00;100458.66;5002618;28;20184;-76
2022/08/02 01:45:28;;;;;;;1.50;1.40;;;;;;;20.94;100.00;100457.91;4999967;28;20199;-76
2022/08/02 01:47:55;;;;;;;1.23;1.13;;;;;;;20.90;100.00;100453.72;5012133;28;20192;-78
2022/08/02 01:50:26;;;;;;;1.30;1.20;;;;;;;20.86;100.00;100454.78;5004184;28;20224;-79
2022/08/02 01:52:55;;;;;;;1.50;1.40;;;;;;;20.83;100.00;100453.16;4996685;28;20189;-78
2022/08/02 01:55:30;;;;;;;1.53;1.40;;;;;;;20.78;100.00;100444.66;4995829;28;20195;-76
2022/08/02 01:57:59;;;;;;;1.30;1.30;;;;;;;20.74;100.00;100444.84;4994329;28;20192;-76
2022/08/02 02:00:30;;;;;;;1.33;1.23;;;;;;;20.68;100.00;100446.84;4997571;28;20343;-79
2022/08/02 02:02:57;;;;;;;1.43;1.33;;;;;;;20.63;100.00;100448.84;5003429;28;20269;-78
2022/08/02 02:05:26;;;;;;;1.40;1.30;;;;;;;20.56;100.00;100447.44;5008205;28;20199;-76
2022/08/02 02:07:55;;;;;;;1.40;1.30;;;;;;;20.50;100.00;100445.09;4998927;28;20192;-75
2022/08/02 02:10:30;;;;;;;1.40;1.30;;;;;;;20.41;100.00;100443.78;4989844;28;20232;-75
2022/08/02 02:13:02;;;;;;;2.17;1.57;;;;;;;20.34;100.00;100458.13;4999734;28;20302;-76
2022/08/02 02:15:29;;;;;;;1.60;1.50;;;;;;;20.27;100.00;100449.69;4999684;28;20594;-76
2022/08/02 02:17:57;;;;;;;2.37;1.37;;;;;;;20.20;100.00;100453.50;4994011;28;20223;-76
2022/08/02 02:20:23;;;;;;;1.30;1.20;;;;;;;20.15;100.00;100453.72;4998366;28;20215;-77
2022/08/02 02:22:49;;;;;;;1.30;1.20;;;;;;;20.08;100.00;100450.53;5001220;28;20798;-76
2022/08/02 02:25:17;;;;;;;1.37;1.27;;;;;;;20.04;100.00;100448.13;4996592;28;20242;-76
2022/08/02 02:28:04;;;;;;;1.40;1.30;;;;;;;19.98;100.00;100448.38;4998950;28;20198;-77
2022/08/02 02:30:32;;;;;;;1.50;1.40;;;;;;;19.92;100.00;100445.13;4996929;28;20220;-75
2022/08/02 02:33:00;;;;;;;1.80;1.60;;;;;;;19.88;100.00;100446.19;4999622;28;20196;-77
2022/08/02 02:35:32;;;;;;;1.60;1.50;;;;;;;19.82;100.00;100441.16;4992691;28;20191;-77
2022/08/02 02:38:01;;;;;;;1.70;1.60;;;;;;;19.74;100.00;100444.16;5005406;28;20357;-76
2022/08/02 02:40:27;;;;;;;1.50;1.40;;;;;;;19.68;100.00;100439.19;4997649;28;20211;-76
2022/08/02 02:42:54;;;;;;;1.60;1.50;;;;;;;19.63;100.00;100442.03;5002783;28;20748;-75
2022/08/02 02:45:20;;;;;;;1.57;1.20;;;;;;;19.61;100.00;100445.63;4996504;28;20195;-76
2022/08/02 02:47:48;;;;;;;1.50;1.40;;;;;;;19.58;100.00;100436.13;5000454;28;20192;-76
2022/08/02 02:50:16;;;;;;;1.80;1.70;;;;;;;19.60;100.00;100446.53;5004811;28;20349;-77
2022/08/02 02:52:42;;;;;;;1.53;1.43;;;;;;;19.60;100.00;100449.16;4998182;28;20555;-75
2022/08/02 02:55:09;;;;;;;1.50;1.40;;;;;;;19.59;100.00;100444.81;4993250;28;20188;-75
2022/08/02 02:57:36;;;;;;;1.60;1.50;;;;;;;19.60;100.00;100451.78;5002948;28;20211;-74
2022/08/02 03:00:13;;;;;;;1.57;1.47;;;;;;;19.58;100.00;100449.25;4994871;28;20214;-76
2022/08/02 03:02:41;;;;;;;1.30;1.20;;;;;;;19.58;100.00;100451.03;5000560;28;20201;-75
2022/08/02 03:05:11;;;;;;;1.50;1.40;;;;;;;19.59;100.00;100461.44;4996505;28;20197;-77
2022/08/02 03:07:37;;;;;;;1.40;1.30;;;;;;;19.58;100.00;100465.00;5002541;28;20828;-77
2022/08/02 03:10:05;;;;;;;1.63;1.53;;;;;;;19.59;100.00;100457.94;5003642;28;20214;-77
2022/08/02 03:12:32;;;;;;;1.57;1.47;;;;;;;19.58;100.00;100454.50;4997750;28;20691;-76
2022/08/02 03:14:59;;;;;;;1.37;1.27;;;;;;;19.58;100.00;100461.53;4996867;28;20281;-77
2022/08/02 03:17:25;;;;;;;1.60;1.50;;;;;;;19.55;100.00;100454.63;5003022;28;20694;-77
2022/08/02 03:19:56;;;;;;;1.63;1.37;;;;;;;19.52;100.00;100460.00;5001399;28;20317;-77
2022/08/02 03:22:21;;;;;;;1.80;1.50;;;;;;;19.46;100.00;100455.03;5001641;28;20282;-77
2022/08/02 03:24:46;;;;;;;1.57;1.43;;;;;;;19.40;100.00;100457.91;5001457;28;20279;-76
2022/08/02 03:27:12;;;;;;;1.33;1.23;;;;;;;19.36;100.00;100466.84;5009616;28;20198;-77
2022/08/02 03:29:37;;;;;;;1.67;1.57;;;;;;;19.31;100.00;100474.91;4996869;28;20195;-76
2022/08/02 03:32:03;;;;;;;1.60;1.50;;;;;;;19.28;100.00;100469.81;4998523;28;20203;-77
2022/08/02 03:34:28;;;;;;;2.03;1.60;;;;;;;19.24;100.00;100465.59;5006062;28;20881;-79
2022/08/02 03:36:56;;;;;;;1.60;1.50;;;;;;;19.19;100.00;100466.63;5008002;28;20678;-79
2022/08/02 03:39:24;;;;;;;1.70;1.60;;;;;;;19.15;100.00;100472.91;5018614;28;20214;-76
2022/08/02 03:41:53;;;;;;;2.03;1.77;;;;;;;19.13;100.00;100471.28;5015354;28;20224;-76
2022/08/02 03:44:19;;;;;;;1.63;1.53;;;;;;;19.10;100.00;100477.53;5000241;28;20272;-76
2022/08/02 03:46:45;;;;;;;1.80;1.70;;;;;;;19.09;100.00;100472.31;5006881;28;20632;-76
2022/08/02 03:49:11;;;;;;;1.60;1.50;;;;;;;19.09;100.00;100469.69;5016829;28;20682;-77
2022/08/02 03:51:37;;;;;;;1.80;1.70;;;;;;;19.07;100.00;100469.78;5003946;28;20978;-77
2022/08/02 03:54:03;;;;;;;2.37;1.80;;;;;;;19.06;100.00;100472.47;5007027;28;20199;-76
2022/08/02 03:56:29;;;;;;;1.80;1.67;;;;;;;19.03;100.00;100473.44;5006680;28;20229;-76
2022/08/02 03:59:10;;;;;;;1.80;1.70;;;;;;;19.02;100.00;100472.59;5003241;28;20253;-75
2022/08/02 04:01:36;;;;;;;1.70;1.60;;;;;;;19.02;100.00;100475.22;5001541;28;20218;-76
2022/08/02 04:04:01;;;;;;;2.20;2.00;;;;;;;19.03;100.00;100474.31;5002794;28;20193;-76
2022/08/02 04:06:27;;;;;;;1.93;1.83;;;;;;;19.04;100.00;100477.75;5006722;28;20651;-75
2022/08/02 04:08:52;;;;;;;2.17;1.67;;;;;;;19.05;100.00;100479.47;5014163;28;20203;-76
2022/08/02 04:11:30;;;;;;;1.73;1.63;;;;;;;19.05;100.00;100471.59;5003841;28;20293;-75
2022/08/02 04:14:01;;;;;;;1.70;1.60;;;;;;;19.08;100.00;100481.97;5005394;28;20192;-76
2022/08/02 04:16:43;;;;;;;1.53;1.43;;;;;;;19.11;100.00;100475.75;5014014;28;20216;-76
2022/08/02 04:19:25;;;;;;;1.80;1.70;;;;;;;19.16;100.00;100490.38;5008191;28;20224;-79
2022/08/02 04:21:53;;;;;;;2.03;1.73;;;;;;;19.22;100.00;100478.75;5015264;28;20201;-75
2022/08/02 04:24:33;;;;;;;2.00;1.80;;;;;;;19.35;100.00;100486.97;5003454;28;20204;-75
2022/08/02 04:26:59;;;;;;;2.00;1.80;;;;;;;19.48;100.00;100488.16;5002964;28;20659;-75
2022/08/02 04:29:26;;;;;;;4.20;1.87;;;;;;;19.68;100.00;100482.94;4999441;28;20199;-76
2022/08/02 04:31:52;;;;;;;4.03;2.10;;;;;;;19.99;100.00;100484.25;5005950;28;20203;-76
2022/08/02 04:34:18;;;;;;;5.17;2.00;;;;;;;20.33;100.00;100486.19;5006428;28;20255;-78
2022/08/02 04:36:44;;;;;;;3.63;2.03;;;;;;;20.66;100.00;100485.50;5005168;28;20228;-77
2022/08/02 04:39:09;;;;;;;3.40;1.90;;;;;;;20.78;100.00;100475.38;5007072;28;20193;-76
2022/08/02 04:41:39;;;;;;;3.50;1.93;;;;;;;20.78;100.00;100486.72;5005529;28;20206;-76
2022/08/02 04:44:04;;;;;;;1.90;1.80;;;;;;;20.80;100.00;100484.88;5004120;28;20191;-76
2022/08/02 04:46:30;;;;;;;2.67;1.77;;;;;;;20.90;100.00;100479.16;5010133;28;20282;-75
2022/08/02 04:48:56;;;;;;;1.93;1.73;;;;;;;20.97;100.00;100481.41;5001537;28;20562;-75
2022/08/02 04:51:21;;;;;;;1.77;1.60;;;;;;;21.02;100.00;100475.94;5010350;28;20254;-76
2022/08/02 04:53:47;;;;;;;1.80;1.70;;;;;;;21.05;100.00;100478.38;5016198;28;20225;-76
2022/08/02 04:56:12;;;;;;;1.90;1.80;;;;;;;21.08;100.00;100472.16;5009051;28;21083;-76
2022/08/02 04:58:37;;;;;;;1.80;1.70;;;;;;;21.12;100.00;100487.69;4992269;28;20193;-75
2022/08/02 05:01:03;;;;;;;9.17;8.33;;;;;;;21.19;100.00;100484.75;4993273;28;20209;-75
2022/08/02 05:03:28;;;;;;;13.83;12.47;;;;;;;21.26;100.00;100480.88;4996264;28;20191;-76
2022/08/02 05:05:53;;;;;;;14.97;13.53;;;;;;;21.35;99.94;100469.88;5005224;28;20258;-75
2022/08/02 05:08:19;;;;;;;12.30;11.20;;;;;;;21.47;99.93;100482.44;5008398;28;20195;-76
2022/08/02 05:10:44;;;;;;;9.90;8.90;;;;;;;21.58;99.69;100481.84;5010345;28;20303;-76
2022/08/02 05:13:09;;;;;;;8.40;7.60;;;;;;;21.67;99.84;100479.72;5023422;28;20241;-77
2022/08/02 05:15:35;;;;;;;6.37;5.77;;;;;;;21.77;99.77;100486.19;5005457;28;20192;-77
2022/08/02 05:18:00;;;;;;;4.90;4.50;;;;;;;21.87;99.35;100481.28;5005503;28;20231;-77
2022/08/02 05:20:26;;;;;;;4.43;3.90;;;;;;;21.98;98.91;100481.56;4999428;28;20235;-76
2022/08/02 05:22:51;;;;;;;3.40;3.10;;;;;;;22.15;98.36;100482.44;5023285;28;20238;-76
2022/08/02 05:25:17;;;;;;;3.37;3.07;;;;;;;22.43;96.55;100486.22;5007289;28;20339;-75
2022/08/02 05:27:42;;;;;;;2.70;2.50;;;;;;;22.71;95.31;100480.25;5008902;28;20181;-75
2022/08/02 05:30:08;;;;;;;2.87;2.67;;;;;;;23.02;93.97;100478.47;5008353;28;20629;-76
2022/08/02 05:32:41;;;;;;;2.23;2.10;;;;;;;24.02;91.07;100484.03;4997851;28;20600;-78
2022/08/02 05:35:06;;;;;;;2.00;1.90;;;;;;;25.69;86.25;100470.50;5004441;28;20223;-78
2022/08/02 05:37:32;;;;;;;1.90;1.80;;;;;;;27.24;81.31;100472.56;4994071;28;20572;-79
2022/08/02 05:39:57;;;;;;;4.60;1.70;;;;;;;28.39;77.41;100484.06;4999892;28;20291;-76
2022/08/02 05:42:22;;;;;;;2.23;1.70;;;;;;;29.27;74.99;100481.31;5010676;28;20271;-75
2022/08/02 05:44:48;;;;;;;1.60;1.50;;;;;;;30.04;73.17;100472.03;5022825;28;20663;-75
2022/08/02 05:47:13;;;;;;;1.70;1.60;;;;;;;30.42;71.97;100470.44;5016334;28;20201;-78
2022/08/02 05:49:39;;;;;;;1.63;1.40;;;;;;;30.84;71.31;100479.16;5018103;28;20546;-79
2022/08/02 05:52:15;;;;;;;1.40;1.30;;;;;;;31.24;69.80;100475.47;4999457;28;20311;-78
2022/08/02 05:54:53;;;;;;;1.53;1.43;;;;;;;31.10;68.65;100479.44;5006560;28;20180;-78
2022/08/02 05:57:36;;;;;;;1.40;1.30;;;;;;;30.72;69.28;100489.16;4998467;28;20203;-78
2022/08/02 06:00:06;;;;;;;1.60;1.50;;;;;;;30.36;69.45;100483.50;5009271;28;20204;-78
2022/08/02 06:02:56;;;;;;;1.50;1.40;;;;;;;30.40;69.88;100485.72;4992258;28;20283;-78
2022/08/02 06:05:26;;;;;;;1.50;1.40;;;;;;;30.52;69.64;100488.28;4991743;28;20701;-79
2022/08/02 06:07:57;;;;;;;1.83;1.70;;;;;;;30.55;69.19;100490.69;5006818;28;20188;-77
2022/08/02 06:10:25;;;;;;;2.30;1.67;;;;;;;30.65;69.22;100496.06;4986657;28;20228;-76
2022/08/02 06:12:55;;;;;;;1.50;1.40;;;;;;;31.23;68.60;100487.19;4987108;28;20235;-77
2022/08/02 06:15:20;;;;;;;1.90;1.80;;;;;;;31.82;67.32;100495.06;4986771;28;20559;-76
2022/08/02 06:17:46;;;;;;;1.70;1.60;;;;;;;32.22;66.21;100491.16;4988440;28;20212;-76
2022/08/02 06:20:14;;;;;;;1.87;1.70;;;;;;;32.55;65.96;100492.53;5003582;28;20234;-78
2022/08/02 06:22:43;;;;;;;2.20;1.80;;;;;;;32.85;65.15;100494.00;5002221;28;20204;-78
2022/08/02 06:25:10;;;;;;;2.17;1.77;;;;;;;32.96;64.20;100487.53;4993165;28;20184;-78
2022/08/02 06:27:37;;;;;;;1.60;1.50;;;;;;;32.97;64.17;100491.91;5002367;28;20192;-76
2022/08/02 06:30:03;;;;;;;2.05;1.75;;;;;;;33.13;64.36;100481.31;5004534;28;20200;-75
2022/08/02 06:32:31;;;;;;;1.80;1.70;;;;;;;33.31;64.17;100477.75;4999535;28;20185;-77
2022/08/02 06:34:56;;;;;;;1.80;1.70;;;;;;;33.51;63.87;100485.56;5004741;28;20176;-76
2022/08/02 06:37:40;;;;;;;1.60;1.50;;;;;;;33.40;63.90;100484.88;5012689;28;20579;-76
2022/08/02 06:40:31;;;;;;;2.05;1.85;;;;;;;33.57;64.02;100488.50;5004229;28;20210;-76
2022/08/02 06:43:30;;;;;;;3.90;2.28;;;;;;;33.76;62.86;100486.53;4987102;28;20208;-76
2022/08/02 06:45:56;;;;;;;2.05;1.95;;;;;;;33.74;62.39;100488.53;5007111;28;20182;-76
2022/08/02 06:48:21;;;;;;;3.50;2.42;;;;;;;33.42;61.66;100493.59;5002998;28;20267;-76
2022/08/02 06:50:47;;;;;;;3.25;2.20;;;;;;;33.03;62.71;100493.97;5001387;28;20203;-76
2022/08/02 06:53:12;;;;;;;4.32;2.50;;;;;;;32.82;62.77;100488.97;5004263;28;20192;-77
2022/08/02 06:55:38;;;;;;;4.65;2.53;;;;;;;32.85;62.65;100494.00;5005319;28;20189;-76
2022/08/02 06:58:03;;;;;;;2.95;2.42;;;;;;;32.92;62.51;100494.22;5013374;28;20217;-77
2022/08/02 07:00:29;;;;;;;2.13;1.92;;;;;;;32.96;62.69;100487.53;5005067;28;20306;-76
2022/08/02 07:02:55;;;;;;;2.17;2.03;;;;;;;33.09;62.65;100487.97;5000265;28;20191;-76
2022/08/02 07:05:21;;;;;;;2.88;2.47;;;;;;;33.17;61.62;100489.06;5008649;28;20181;-77
2022/08/02 07:07:46;;;;;;;3.00;2.40;;;;;;;33.03;61.73;100496.66;5008377;28;20253;-77
2022/08/02 07:10:13;;;;;;;3.03;2.75;;;;;;;33.09;61.84;100489.84;5016324;28;20211;-76
2022/08/02 07:12:39;;;;;;;4.10;2.80;;;;;;;33.00;61.79;100491.59;5003702;28;20203;-77
2022/08/02 07:15:06;;;;;;;2.55;2.35;;;;;;;33.14;61.88;100499.09;5009469;28;20582;-75
2022/08/02 07:17:32;;;;;;;2.97;2.28;;;;;;;33.17;61.52;100495.25;4990526;28;20608;-76
2022/08/02 07:20:01;;;;;;;2.40;2.20;;;;;;;33.21;61.49;100493.94;4988715;28;20585;-76
2022/08/02 07:22:27;;;;;;;2.35;2.15;;;;;;;33.39;61.73;100493.06;5015107;28;20626;-76
2022/08/02 07:24:55;;;;;;;3.05;2.10;;;;;;;33.65;61.44;100493.06;5009019;28;20275;-76
2022/08/02 07:27:21;;;;;;;2.47;2.28;;;;;;;33.85;60.99;100496.34;5013289;28;20194;-77
2022/08/02 07:29:47;;;;;;;2.40;2.20;;;;;;;33.78;60.83;100495.28;5015212;28;20555;-78
2022/08/02 07:32:19;;;;;;;2.45;2.25;;;;;;;33.71;61.00;100497.78;5009142;28;22348;-78
2022/08/02 07:34:46;;;;;;;3.35;2.22;;;;;;;33.71;61.23;100495.09;4999154;28;20640;-78
2022/08/02 07:37:11;;;;;;;2.45;2.25;;;;;;;33.85;61.20;100501.69;5012164;28;20239;-78
2022/08/02 07:39:37;;;;;;;2.75;2.38;;;;;;;33.50;60.67;100492.81;5006003;28;20211;-76
2022/08/02 07:42:03;;;;;;;2.53;2.33;;;;;;;33.03;62.28;100502.03;5007475;28;20192;-76
2022/08/02 07:44:33;;;;;;;4.85;2.38;;;;;;;32.94;62.05;100495.75;5013483;28;20253;-76
2022/08/02 07:47:01;;;;;;;3.42;2.97;;;;;;;32.80;62.38;100496.28;5003363;28;20596;-76
2022/08/02 07:49:27;;;;;;;3.60;2.80;;;;;;;32.79;63.00;100497.28;5003337;28;20181;-76
2022/08/02 07:51:53;;;;;;;4.07;2.40;;;;;;;32.76;62.96;100502.94;5003755;28;20196;-75
2022/08/02 07:54:19;;;;;;;2.88;2.50;;;;;;;32.59;63.19;100499.28;5007033;28;20238;-77
2022/08/02 07:56:44;;;;;;;6.35;2.30;;;;;;;32.34;63.67;100494.50;5006936;28;20283;-76
2022/08/02 07:59:10;;;;;;;2.78;2.10;;;;;;;32.18;64.42;100489.78;5008469;28;20231;-76
2022/08/02 08:01:36;;;;;;;2.40;2.20;;;;;;;31.84;64.63;100486.88;5006972;28;20628;-76
2022/08/02 08:04:02;;;;;;;2.53;2.10;;;;;;;31.59;64.69;100482.00;4998685;28;20653;-78
2022/08/02 08:06:28;;;;;;;3.07;2.53;;;;;;;31.46;65.40;100482.31;5006894;28;20204;-79
2022/08/02 08:08:54;;;;;;;3.63;2.47;;;;;;;31.40;65.69;100479.38;5016635;28;20259;-79
2022/08/02 08:11:19;;;;;;;2.60;2.40;;;;;;;31.27;66.38;100487.72;5002320;28;20293;-79
2022/08/02 08:13:45;;;;;;;2.80;2.50;;;;;;;31.18;66.70;100486.78;5006684;28;20620;-78
2022/08/02 08:16:10;;;;;;;4.57;3.30;;;;;;;30.81;65.96;100482.97;5002343;28;20224;-77
2022/08/02 08:18:35;;;;;;;3.20;2.90;;;;;;;30.61;66.68;100481.28;5003773;28;20245;-77
2022/08/02 08:21:01;;;;;;;3.83;2.83;;;;;;;30.52;67.03;100474.91;5008104;28;20285;-76
2022/08/02 08:23:26;;;;;;;3.27;2.97;;;;;;;30.40;67.66;100479.56;5002830;28;20200;-78
2022/08/02 08:25:51;;;;;;;3.20;2.93;;;;;;;30.09;67.82;100479.66;5009304;28;20184;-78
2022/08/02 08:28:17;;;;;;;8.40;3.20;;;;;;;29.79;68.20;100484.00;5004807;28;20302;-78
2022/08/02 08:30:42;;;;;;;4.07;3.30;;;;;;;29.51;69.25;100478.38;5021578;28;20947;-76
2022/08/02 08:33:08;;;;;;;3.47;3.17;;;;;;;29.28;69.48;100467.84;5010462;28;20197;-75
2022/08/02 08:35:34;;;;;;;3.60;2.87;;;;;;;29.18;69.98;100462.47;5007173;28;20225;-76
2022/08/02 08:37:59;;;;;;;3.60;3.07;;;;;;;29.12;70.28;100465.63;5017256;28;20659;-75
2022/08/02 08:40:25;;;;;;;2.87;2.67;;;;;;;29.08;70.67;100464.22;5001994;28;20244;-76
2022/08/02 08:42:50;;;;;;;2.97;2.77;;;;;;;29.11;71.05;100471.13;5002753;28;20200;-76
2022/08/02 08:45:16;;;;;;;4.27;2.73;;;;;;;29.00;70.97;100462.22;5007524;28;20609;-76
2022/08/02 08:47:42;;;;;;;3.33;2.87;;;;;;;28.94;71.10;100460.06;5011212;28;20739;-77
2022/08/02 08:50:10;;;;;;;3.17;2.90;;;;;;;28.75;71.57;100460.75;5016101;28;20294;-76
2022/08/02 08:52:51;;;;;;;3.40;3.10;;;;;;;28.71;72.70;100470.81;5018753;28;20724;-75
2022/08/02 08:55:21;;;;;;;3.23;3.03;;;;;;;28.61;71.66;100459.19;5020137;28;20203;-75
2022/08/02 08:57:46;;;;;;;3.30;3.00;;;;;;;28.54;72.16;100466.84;5017340;28;20216;-77
2022/08/02 09:00:12;;;;;;;3.10;2.90;;;;;;;28.42;71.93;100459.88;5015064;28;20215;-75
2022/08/02 09:02:41;;;;;;;4.47;3.60;;;;;;;28.23;72.00;100457.88;5017103;28;20722;-76
2022/08/02 09:05:12;;;;;;;3.97;3.67;;;;;;;28.27;71.99;100452.19;5014424;28;20956;-79
2022/08/02 09:07:37;;;;;;;3.53;3.23;;;;;;;28.33;71.55;100450.00;5013840;28;20241;-76
2022/08/02 09:10:31;;;;;;;3.40;3.10;;;;;;;28.28;70.99;100447.72;5016388;28;20204;-78
2022/08/02 09:13:08;;;;;;;3.73;3.40;;;;;;;28.33;71.05;100437.53;5014147;28;20266;-76
2022/08/02 09:15:35;;;;;;;3.47;3.27;;;;;;;28.47;70.87;100448.84;5006695;28;20230;-75
2022/08/02 09:18:04;;;;;;;4.87;3.47;;;;;;;28.40;69.86;100448.50;5018016;28;20215;-76
2022/08/02 09:20:29;;;;;;;3.50;3.20;;;;;;;28.31;70.06;100449.28;5017876;28;20199;-75
2022/08/02 09:23:10;;;;;;;3.50;3.20;;;;;;;28.31;70.27;100454.59;5015081;28;20268;-78
2022/08/02 09:25:36;;;;;;;3.37;2.97;;;;;;;28.35;70.05;100462.19;4999004;28;20556;-78
2022/08/02 09:28:03;;;;;;;5.00;3.40;;;;;;;28.16;70.04;100457.53;5015411;28;20549;-77
2022/08/02 09:30:29;;;;;;;3.40;3.10;;;;;;;28.17;70.06;100463.69;5013917;28;20211;-78
2022/08/02 09:32:54;;;;;;;3.17;2.97;;;;;;;28.21;70.40;100447.34;5001156;28;20267;-76
2022/08/02 09:35:38;;;;;;;3.20;3.00;;;;;;;28.27;69.56;100448.69;5012536;28;20221;-77
2022/08/02 09:38:12;;;;;;;3.93;3.60;;;;;;;28.18;69.39;100444.97;5013305;28;20224;-76
2022/08/02 09:40:38;;;;;;;3.50;3.20;;;;;;;28.30;69.98;100443.09;5013926;28;20639;-75
2022/08/02 09:43:05;;;;;;;3.30;3.10;;;;;;;28.37;69.44;100448.75;5024606;28;20179;-75
2022/08/02 09:45:35;;;;;;;3.70;3.43;;;;;;;28.46;69.30;100445.34;5016874;28;20191;-75
2022/08/02 09:48:07;;;;;;;3.40;3.13;;;;;;;28.52;69.25;100438.69;5001430;28;20192;-78
2022/08/02 09:50:37;;;;;;;4.93;3.20;;;;;;;28.56;69.01;100442.78;5009862;28;20226;-78
2022/08/02 09:53:03;;;;;;;4.27;3.17;;;;;;;28.63;68.61;100440.47;5017037;28;20192;-78
2022/08/02 09:55:29;;;;;;;3.40;3.10;;;;;;;28.51;68.62;100431.66;5006856;28;20198;-77
2022/08/02 09:57:55;;;;;;;3.80;3.50;;;;;;;28.55;68.58;100428.63;5007100;28;20563;-76
2022/08/02 10:00:20;;;;;;;3.63;3.43;;;;;;;28.71;68.72;100420.22;4992602;28;20564;-76
2022/08/02 10:03:05;;;;;;;3.30;3.10;;;;;;;28.99;68.59;100425.03;5002866;28;20183;-77
2022/08/02 10:05:45;;;;;;;3.33;3.13;;;;;;;29.25;68.00;100421.97;5002041;28;20197;-76
2022/08/02 10:08:13;;;;;;;3.57;3.27;;;;;;;29.50;68.06;100418.91;5013450;28;20180;-77
2022/08/02 10:10:39;;;;;;;3.23;3.03;;;;;;;29.67;67.22;100421.91;5006644;28;20255;-79
2022/08/02 10:13:05;;;;;;;3.10;2.80;;;;;;;29.79;66.62;100418.16;5022042;28;20282;-79
2022/08/02 10:15:30;;;;;;;3.57;3.27;;;;;;;29.75;66.24;100422.06;4994618;28;20324;-79
2022/08/02 10:17:55;;;;;;;3.90;3.10;;;;;;;29.59;66.54;100419.91;5005476;28;20240;-75
2022/08/02 10:20:22;;;;;;;4.13;2.87;;;;;;;29.60;66.17;100415.41;5002652;28;20244;-76
2022/08/02 10:22:47;;;;;;;3.43;3.07;;;;;;;29.50;66.40;100413.56;4992604;28;20192;-78
2022/08/02 10:25:14;;;;;;;3.70;3.40;;;;;;;29.31;66.60;100416.97;5004547;28;20205;-78
2022/08/02 10:27:42;;;;;;;3.40;3.10;;;;;;;29.03;66.96;100419.34;5008404;28;20196;-78
2022/08/02 10:30:08;;;;;;;3.10;2.83;;;;;;;28.84;67.15;100416.53;5004581;28;20296;-75
2022/08/02 10:32:42;;;;;;;4.13;3.03;;;;;;;28.58;67.51;100406.25;5013341;28;20211;-76
2022/08/02 10:35:17;;;;;;;3.07;2.87;;;;;;;28.62;67.21;100404.16;5013845;28;20181;-76
2022/08/02 10:37:46;;;;;;;3.60;3.30;;;;;;;28.87;67.14;100398.47;5015922;28;20225;-75
2022/08/02 10:40:25;;;;;;;3.43;3.13;;;;;;;29.08;66.63;100418.06;5003761;28;20211;-75
2022/08/02 10:42:58;;;;;;;3.40;3.10;;;;;;;29.33;66.17;100398.16;5016813;28;20194;-74
2022/08/02 10:45:23;;;;;;;2.93;2.73;;;;;;;29.57;65.82;100389.88;4996963;28;20220;-76
2022/08/02 10:47:58;;;;;;;2.77;2.57;;;;;;;29.79;65.19;100396.81;5010651;28;20675;-76
2022/08/02 10:50:45;;;;;;;2.80;2.60;;;;;;;29.81;65.47;100384.19;5000005;28;20226;-77
2022/08/02 10:53:21;;;;;;;2.87;2.70;;;;;;;29.86;65.22;100382.94;5004744;28;20258;-75
2022/08/02 10:55:46;;;;;;;3.07;2.87;;;;;;;29.92;65.53;100372.56;5015135;28;20247;-75
2022/08/02 10:58:18;;;;;;;2.77;2.57;;;;;;;29.85;65.07;100379.41;5001997;28;21923;-76
2022/08/02 11:00:43;;;;;;;3.20;3.00;;;;;;;29.65;65.12;100375.88;4997823;28;20215;-76
2022/08/02 11:03:33;;;;;;;2.83;2.63;;;;;;;29.69;65.49;100363.09;5005466;28;20726;-76
2022/08/02 11:06:08;;;;;;;2.40;2.30;;;;;;;29.76;66.14;100369.59;4993046;28;20184;-76
2022/08/02 11:08:34;;;;;;;3.10;2.80;;;;;;;29.85;65.76;100374.09;4999586;28;20187;-76
2022/08/02 11:11:20;;;;;;;3.40;3.10;;;;;;;29.73;65.60;100373.34;5008345;28;20295;-76
2022/08/02 11:14:07;;;;;;;4.83;2.97;;;;;;;29.54;65.90;100370.66;5005614;28;20229;-75
2022/08/02 11:16:55;;;;;;;5.40;3.40;;;;;;;29.44;66.67;100362.59;5001099;28;20308;-76
2022/08/02 11:19:24;;;;;;;5.93;3.13;;;;;;;29.40;67.34;100362.03;5011807;28;20262;-75
2022/08/02 11:22:01;;;;;;;3.30;3.10;;;;;;;29.42;65.86;100362.72;5019444;28;20306;-75
2022/08/02 11:24:35;;;;;;;3.93;3.00;;;;;;;29.46;65.69;100356.16;5009304;28;20184;-78
2022/08/02 11:27:03;;;;;;;3.20;3.00;;;;;;;29.75;65.38;100350.06;5022222;28;20182;-78
2022/08/02 11:29:40;;;;;;;3.30;3.10;;;;;;;29.62;65.19;100357.47;5008388;28;20192;-78